Terminal Aerodrome Forecast
Issued by NWS Chicago, IL

Home | Current Version | Previous Version | Graphics & Text | Print | Product List | Glossary On
Versions: 1 2 3 4 5 6 7 8 9 10 11 12 13 14 15 16 17 18 19 20 21 22 23 24 25 26 27 28 29 30 31
309
FTUS43 KLOT 271420 AAA
TAFRFD
TAF AMD
KRFD 271420Z 2714/2812 02004KT 6SM BR SCT007 OVC012
      TEMPO 2714/2718 OVC007
     FM271800 03007KT P6SM SCT009 OVC015
     FM280100 03009KT 5SM BR FEW007 BKN015=

USA.gov is the U.S. government's official web portal to all federal, state and local government web resources and services.